createdAt,value
2022-08-22T00:02:53.828Z,100637.47
2022-08-22T00:02:55.896Z,100666.88
2022-08-22T00:03:02.139Z,100637.34
2022-08-22T00:03:03.863Z,100611.50
2022-08-22T00:05:27.084Z,100664.81
2022-08-22T00:08:09.372Z,100651.00
2022-08-22T00:11:03.275Z,100659.09
2022-08-22T00:13:42.853Z,100660.81
2022-08-22T00:16:19.924Z,100666.22
2022-08-22T00:19:16.126Z,100657.97
2022-08-22T00:21:58.962Z,100674.84
2022-08-22T00:24:49.487Z,100689.63
2022-08-22T00:27:22.355Z,100696.03
2022-08-22T00:30:04.744Z,100672.97
2022-08-22T00:32:47.103Z,100661.53
2022-08-22T00:35:26.650Z,100667.06
2022-08-22T00:37:59.862Z,100683.41
2022-08-22T00:40:27.045Z,100692.00
2022-08-22T00:42:59.989Z,100698.25
2022-08-22T00:45:54.780Z,100689.66
2022-08-22T00:48:35.333Z,100682.59
2022-08-22T00:51:25.161Z,100686.13
2022-08-22T00:54:18.267Z,100678.19
2022-08-22T00:57:30.527Z,100675.34
2022-08-22T01:00:20.723Z,100676.22
2022-08-22T01:03:11.493Z,100672.47
2022-08-22T01:06:00.412Z,100669.28
2022-08-22T01:08:55.114Z,100666.25
2022-08-22T01:11:36.099Z,100659.53
2022-08-22T01:14:34.282Z,100661.22
2022-08-22T01:17:31.417Z,100660.72
2022-08-22T01:19:58.588Z,100651.13
2022-08-22T01:22:31.508Z,100643.88
2022-08-22T01:25:22.523Z,100652.63
2022-08-22T01:28:19.139Z,100646.25
2022-08-22T01:31:25.325Z,100642.88
2022-08-22T01:34:23.111Z,100639.50
2022-08-22T01:37:09.977Z,100650.47
2022-08-22T01:40:15.994Z,100640.88
2022-08-22T01:42:49.062Z,100640.88
2022-08-22T01:45:50.381Z,100636.16
2022-08-22T01:48:41.992Z,100638.81
2022-08-22T01:51:52.591Z,100640.19
2022-08-22T01:54:46.476Z,100638.16
2022-08-22T01:57:13.867Z,100635.31
2022-08-22T01:59:45.438Z,100639.53
2022-08-22T02:02:32.109Z,100639.16
2022-08-22T02:05:23.919Z,100645.19
2022-08-22T02:08:21.656Z,100651.91
2022-08-22T02:11:06.024Z,100656.44
2022-08-22T02:13:56.590Z,100652.72
2022-08-22T02:16:33.652Z,100662.16
2022-08-22T02:19:17.864Z,100657.97
2022-08-22T02:21:51.928Z,100658.13
2022-08-22T02:24:45.183Z,100649.53
2022-08-22T02:27:35.683Z,100651.50
2022-08-22T02:30:03.759Z,100653.03
2022-08-22T02:32:40.494Z,100652.50
2022-08-22T02:35:22.980Z,100663.44
2022-08-22T02:38:08.732Z,100655.72
2022-08-22T02:40:48.200Z,100656.22
2022-08-22T02:43:28.212Z,100659.06
2022-08-22T02:45:58.095Z,100668.31
2022-08-22T02:48:39.283Z,100667.66
2022-08-22T02:51:19.411Z,100671.00
2022-08-22T02:53:58.130Z,100664.44
2022-08-22T02:56:35.732Z,100661.75
2022-08-22T02:59:39.224Z,100663.94
2022-08-22T03:02:24.993Z,100664.91
2022-08-22T03:04:56.229Z,100659.66
2022-08-22T03:07:43.283Z,100658.94
2022-08-22T03:10:16.546Z,100650.72
2022-08-22T03:12:51.330Z,100652.06
2022-08-22T03:15:36.654Z,100662.47
2022-08-22T03:18:32.956Z,100656.75
2022-08-22T03:21:13.995Z,100656.91
2022-08-22T03:23:47.784Z,100659.06
2022-08-22T03:26:44.924Z,100650.59
2022-08-22T03:29:20.352Z,100650.59
2022-08-22T03:32:05.963Z,100652.31
2022-08-22T03:34:33.944Z,100650.91
2022-08-22T03:37:18.873Z,100655.09
2022-08-22T03:40:01.189Z,100651.53
2022-08-22T03:43:05.640Z,100651.88
2022-08-22T03:46:08.011Z,100647.25
2022-08-22T03:49:03.636Z,100653.13
2022-08-22T03:51:48.021Z,100656.63
2022-08-22T03:54:55.929Z,100657.63
2022-08-22T03:57:54.593Z,100665.16
2022-08-22T04:00:41.956Z,100662.22
2022-08-22T04:03:33.598Z,100668.06
2022-08-22T04:06:19.893Z,100658.75
2022-08-22T04:09:05.840Z,100664.00
2022-08-22T04:11:58.784Z,100661.59
2022-08-22T04:14:58.012Z,100660.25
2022-08-22T04:18:00.494Z,100657.72
2022-08-22T04:21:01.435Z,100662.00
2022-08-22T04:23:53.254Z,100658.09
2022-08-22T04:26:57.475Z,100662.00
2022-08-22T04:29:32.038Z,100665.16
2022-08-22T04:32:12.714Z,100651.81
2022-08-22T04:34:50.676Z,100655.22
2022-08-22T04:37:22.347Z,100663.38
2022-08-22T04:39:57.914Z,100664.09
2022-08-22T04:42:35.140Z,100665.78
2022-08-22T04:45:29.694Z,100674.06
2022-08-22T04:48:18.580Z,100669.25
2022-08-22T04:50:54.676Z,100666.38
2022-08-22T04:53:27.704Z,100660.69
2022-08-22T04:56:11.598Z,100670.28
2022-08-22T04:58:44.895Z,100669.44
2022-08-22T05:01:25.878Z,100677.72
2022-08-22T05:04:06.397Z,100678.25
2022-08-22T05:06:40.199Z,100686.75
2022-08-22T05:09:16.207Z,100680.19
2022-08-22T05:11:45.892Z,100679.94
2022-08-22T05:14:32.412Z,100682.00
2022-08-22T05:17:01.160Z,100686.75
2022-08-22T05:19:34.681Z,100686.44
2022-08-22T05:22:03.388Z,100689.81
2022-08-22T05:24:37.626Z,100690.34
2022-08-22T05:27:19.843Z,100691.72
2022-08-22T05:29:53.727Z,100701.38
2022-08-22T05:32:29.036Z,100704.28
2022-08-22T05:35:01.420Z,100699.63
2022-08-22T05:37:48.213Z,100703.66
2022-08-22T05:40:21.969Z,100703.66
2022-08-22T05:42:49.531Z,100702.38
2022-08-22T05:45:18.531Z,100702.84
2022-08-22T05:47:52.643Z,100694.59
2022-08-22T05:50:51.099Z,100697.38
2022-08-22T05:53:36.020Z,100696.88
2022-08-22T05:56:21.818Z,100692.19
2022-08-22T05:59:00.091Z,100699.28
2022-08-22T06:01:41.206Z,100687.94
2022-08-22T06:04:35.378Z,100702.44
2022-08-22T06:07:18.868Z,100706.19
2022-08-22T06:09:46.028Z,100706.53
2022-08-22T06:12:25.754Z,100702.50
2022-08-22T06:14:58.555Z,100699.88
2022-08-22T06:17:35.432Z,100708.94
2022-08-22T06:20:09.606Z,100709.25
2022-08-22T06:22:51.898Z,100709.78
2022-08-22T06:25:29.691Z,100710.81
2022-08-22T06:28:03.053Z,100722.56
2022-08-22T06:30:32.097Z,100717.38
2022-08-22T06:33:05.722Z,100721.41
2022-08-22T06:36:07.211Z,100719.94
2022-08-22T06:38:53.239Z,100717.06
2022-08-22T06:41:25.572Z,100718.75
2022-08-22T06:43:54.765Z,100717.44
2022-08-22T06:46:26.788Z,100721.47
2022-08-22T06:48:56.552Z,100716.94
2022-08-22T06:51:29.168Z,100725.16
2022-08-22T06:54:03.595Z,100718.97
2022-08-22T06:56:40.751Z,100720.47
2022-08-22T06:59:14.093Z,100721.69
2022-08-22T07:02:04.066Z,100715.66
2022-08-22T07:04:31.855Z,100718.00
2022-08-22T07:07:01.189Z,100715.53
2022-08-22T07:09:34.783Z,100713.22
2022-08-22T07:12:10.976Z,100713.72
2022-08-22T07:14:44.555Z,100726.00
2022-08-22T07:17:25.629Z,100723.47
2022-08-22T07:20:31.618Z,100718.59
2022-08-22T07:23:10.273Z,100709.38
2022-08-22T07:26:22.547Z,100713.91
2022-08-22T07:29:36.920Z,100715.09
2022-08-22T07:32:23.005Z,100706.84
2022-08-22T07:34:58.441Z,100704.81
2022-08-22T07:37:31.486Z,100704.47
2022-08-22T07:40:21.305Z,100711.72
2022-08-22T07:43:19.022Z,100702.94
2022-08-22T07:46:13.451Z,100705.25
2022-08-22T07:49:09.577Z,100711.47
2022-08-22T07:51:48.798Z,100713.13
2022-08-22T07:54:33.180Z,100708.72
2022-08-22T07:57:07.183Z,100707.00
2022-08-22T07:59:37.681Z,100704.13
2022-08-22T08:02:10.640Z,100705.56
2022-08-22T08:04:40.836Z,100707.91
2022-08-22T08:07:18.008Z,100709.56
2022-08-22T08:10:11.134Z,100705.78
2022-08-22T08:13:00.559Z,100705.75
2022-08-22T08:15:34.462Z,100696.38
2022-08-22T08:18:19.383Z,100713.19
2022-08-22T08:20:59.978Z,100708.22
2022-08-22T08:23:31.400Z,100714.41
2022-08-22T08:26:11.581Z,100711.84
2022-08-22T08:28:44.485Z,100716.00
2022-08-22T08:31:32.106Z,100715.41
2022-08-22T08:34:11.942Z,100701.47
2022-08-22T08:37:02.373Z,100707.81
2022-08-22T08:39:38.020Z,100700.66
2022-08-22T08:43:11.168Z,100704.13
2022-08-22T08:45:53.426Z,100704.22
2022-08-22T08:48:57.833Z,100701.41
2022-08-22T08:51:52.296Z,100709.47
2022-08-22T08:54:33.030Z,100705.47
2022-08-22T08:57:32.568Z,100711.59
2022-08-22T09:00:17.503Z,100709.06
2022-08-22T09:03:30.229Z,100707.56
2022-08-22T09:06:05.764Z,100700.16
2022-08-22T09:08:55.625Z,100694.63
2022-08-22T09:11:28.120Z,100700.41
2022-08-22T09:14:32.072Z,100688.41
2022-08-22T09:17:04.916Z,100692.28
2022-08-22T09:19:49.262Z,100693.22
2022-08-22T09:22:33.513Z,100693.91
2022-08-22T09:25:19.134Z,100691.63
2022-08-22T09:28:17.166Z,100686.53
2022-08-22T09:31:16.868Z,100678.25
2022-08-22T09:34:27.312Z,100674.41
2022-08-22T09:37:14.426Z,100672.13
2022-08-22T09:39:41.650Z,100667.38
2022-08-22T09:42:16.400Z,100670.38
2022-08-22T09:45:27.404Z,100669.97
2022-08-22T09:48:07.659Z,100668.72
2022-08-22T09:50:52.747Z,100671.09
2022-08-22T09:54:00.636Z,100667.00
2022-08-22T09:56:59.174Z,100675.38
2022-08-22T09:59:29.774Z,100666.00
2022-08-22T10:02:32.289Z,100660.47
2022-08-22T10:05:12.777Z,100664.66
2022-08-22T10:08:32.175Z,100665.75
2022-08-22T10:11:23.789Z,100655.97
2022-08-22T10:13:57.602Z,100655.16
2022-08-22T10:16:34.575Z,100647.44
2022-08-22T10:19:18.076Z,100650.22
2022-08-22T10:22:08.478Z,100652.06
2022-08-22T10:25:03.699Z,100649.38
2022-08-22T10:27:56.677Z,100637.44
2022-08-22T10:31:02.056Z,100637.66
2022-08-22T10:33:42.320Z,100642.69
2022-08-22T10:36:23.064Z,100637.44
2022-08-22T10:38:56.074Z,100633.03
2022-08-22T10:41:45.559Z,100633.22
2022-08-22T10:44:45.893Z,100626.97
2022-08-22T10:47:21.299Z,100627.16
2022-08-22T10:50:00.717Z,100621.28
2022-08-22T10:52:34.803Z,100620.63
2022-08-22T10:55:25.081Z,100611.41
2022-08-22T10:58:17.590Z,100619.34
2022-08-22T11:00:58.462Z,100607.16
2022-08-22T11:03:40.820Z,100610.50
2022-08-22T11:06:29.187Z,100607.56
2022-08-22T11:09:17.258Z,100607.31
2022-08-22T11:12:03.030Z,100603.53
2022-08-22T11:14:55.548Z,100602.84
2022-08-22T11:17:38.133Z,100593.53
2022-08-22T11:20:19.443Z,100593.88
2022-08-22T11:22:57.947Z,100590.03
2022-08-22T11:26:05.091Z,100596.28
2022-08-22T11:29:18.421Z,100595.81
2022-08-22T11:32:12.856Z,100596.66
2022-08-22T11:34:42.055Z,100596.38
2022-08-22T11:37:42.719Z,100587.75
2022-08-22T11:40:38.700Z,100594.06
2022-08-22T11:43:32.749Z,100585.59
2022-08-22T11:46:19.844Z,100582.78
2022-08-22T11:49:13.637Z,100577.88
2022-08-22T11:52:10.478Z,100571.84
2022-08-22T11:54:52.762Z,100577.72
2022-08-22T11:57:55.930Z,100573.13
2022-08-22T12:00:55.337Z,100575.31
2022-08-22T12:03:39.844Z,100563.50
2022-08-22T12:06:25.030Z,100563.28
2022-08-22T12:09:39.365Z,100564.91
2022-08-22T12:12:32.053Z,100557.19
2022-08-22T12:15:11.723Z,100560.13
2022-08-22T12:18:10.093Z,100563.00
2022-08-22T12:21:26.448Z,100563.88
2022-08-22T12:24:38.829Z,100556.56
2022-08-22T12:27:09.048Z,100547.75
2022-08-22T12:29:57.204Z,100543.03
2022-08-22T12:32:36.372Z,100538.25
2022-08-22T12:35:30.670Z,100536.28
2022-08-22T12:38:00.725Z,100542.66
2022-08-22T12:40:49.545Z,100548.34
2022-08-22T12:43:22.571Z,100545.31
2022-08-22T12:46:23.010Z,100531.66
2022-08-22T12:49:30.463Z,100538.69
2022-08-22T12:52:22.201Z,100528.88
2022-08-22T12:55:11.767Z,100530.88
2022-08-22T12:58:00.886Z,100534.97
2022-08-22T13:00:40.285Z,100539.16
2022-08-22T13:03:19.131Z,100530.53
2022-08-22T13:05:52.378Z,100532.06
2022-08-22T13:08:38.687Z,100522.09
2022-08-22T13:11:23.208Z,100529.47
2022-08-22T13:14:04.582Z,100525.78
2022-08-22T13:16:48.687Z,100515.34
2022-08-22T13:19:21.587Z,100525.00
2022-08-22T13:21:58.202Z,100516.44
2022-08-22T13:24:56.703Z,100517.03
2022-08-22T13:27:30.394Z,100507.06
2022-08-22T13:30:00.983Z,100494.09
2022-08-22T13:32:33.530Z,100505.25
2022-08-22T13:35:03.746Z,100509.38
2022-08-22T13:37:44.276Z,100503.50
2022-08-22T13:40:31.290Z,100513.22
2022-08-22T13:43:23.722Z,100508.94
2022-08-22T13:45:56.140Z,100511.94
2022-08-22T13:48:46.811Z,100508.13
2022-08-22T13:51:31.216Z,100502.16
2022-08-22T13:54:24.834Z,100508.41
2022-08-22T13:56:56.477Z,100504.59
2022-08-22T13:59:51.089Z,100502.94
2022-08-22T14:02:51.682Z,100499.03
2022-08-22T14:05:45.084Z,100498.91
2022-08-22T14:08:18.695Z,100488.63
2022-08-22T14:10:55.227Z,100485.06
2022-08-22T14:14:02.760Z,100483.97
2022-08-22T14:16:38.489Z,100472.19
2022-08-22T14:19:11.937Z,100474.56
2022-08-22T14:21:42.482Z,100468.34
2022-08-22T14:24:25.670Z,100472.38
2022-08-22T14:27:08.551Z,100474.25
2022-08-22T14:29:50.374Z,100475.31
2022-08-22T14:32:23.339Z,100466.25
2022-08-22T14:35:03.963Z,100465.97
2022-08-22T14:37:53.896Z,100466.78
2022-08-22T14:40:27.463Z,100467.84
2022-08-22T14:43:07.032Z,100464.41
2022-08-22T14:45:39.976Z,100470.44
2022-08-22T14:48:29.731Z,100471.34
2022-08-22T14:51:01.165Z,100468.53
2022-08-22T14:53:37.496Z,100476.97
2022-08-22T14:56:18.003Z,100471.44
2022-08-22T14:59:09.023Z,100467.97
2022-08-22T15:01:55.549Z,100466.66
2022-08-22T15:04:45.620Z,100459.09
2022-08-22T15:07:27.653Z,100466.56
2022-08-22T15:10:01.087Z,100454.97
2022-08-22T15:12:35.005Z,100455.03
2022-08-22T15:15:07.493Z,100452.44
2022-08-22T15:17:46.514Z,100454.34
2022-08-22T15:20:52.292Z,100452.56
2022-08-22T15:23:23.435Z,100442.03
2022-08-22T15:26:03.603Z,100445.66
2022-08-22T15:28:52.628Z,100438.09
2022-08-22T15:31:22.281Z,100436.16
2022-08-22T15:33:50.737Z,100442.28
2022-08-22T15:36:24.479Z,100433.50
2022-08-22T15:39:16.672Z,100441.59
2022-08-22T15:41:52.140Z,100431.19
2022-08-22T15:44:30.859Z,100434.19
2022-08-22T15:47:10.951Z,100435.41
2022-08-22T15:49:56.298Z,100432.16
2022-08-22T15:52:59.142Z,100434.94
2022-08-22T15:55:34.422Z,100433.16
2022-08-22T15:58:09.553Z,100425.97
2022-08-22T16:00:45.690Z,100436.88
2022-08-22T16:03:28.576Z,100430.53
2022-08-22T16:05:59.728Z,100425.44
2022-08-22T16:08:32.916Z,100427.81
2022-08-22T16:11:03.419Z,100424.66
2022-08-22T16:13:30.592Z,100417.03
2022-08-22T16:16:11.211Z,100424.88
2022-08-22T16:18:42.449Z,100417.66
2022-08-22T16:21:13.254Z,100425.38
2022-08-22T16:24:03.432Z,100422.66
2022-08-22T16:26:30.642Z,100427.03
2022-08-22T16:29:04.218Z,100426.88
2022-08-22T16:31:45.885Z,100429.75
2022-08-22T16:34:16.152Z,100429.78
2022-08-22T16:37:03.322Z,100426.09
2022-08-22T16:39:44.519Z,100425.97
2022-08-22T16:42:23.777Z,100427.13
2022-08-22T16:45:05.369Z,100432.72
2022-08-22T16:47:32.823Z,100429.34
2022-08-22T16:50:24.290Z,100429.41
2022-08-22T16:53:01.766Z,100422.66
2022-08-22T16:55:28.963Z,100429.66
2022-08-22T16:58:16.135Z,100430.94
2022-08-22T17:01:05.353Z,100429.13
2022-08-22T17:03:32.546Z,100438.94
2022-08-22T17:06:14.772Z,100444.09
2022-08-22T17:08:53.852Z,100448.66
2022-08-22T17:11:39.632Z,100440.03
2022-08-22T17:14:22.164Z,100448.25
2022-08-22T17:17:19.276Z,100451.16
2022-08-22T17:20:05.174Z,100450.75
2022-08-22T17:22:38.101Z,100447.06
2022-08-22T17:25:19.550Z,100452.34
2022-08-22T17:28:34.300Z,100454.03
2022-08-22T17:31:10.386Z,100467.44
2022-08-22T17:33:40.433Z,100472.13
2022-08-22T17:36:34.229Z,100464.59
2022-08-22T17:39:54.629Z,100460.44
2022-08-22T17:42:52.040Z,100461.53
2022-08-22T17:45:30.272Z,100461.38
2022-08-22T17:48:18.054Z,100460.94
2022-08-22T17:50:48.145Z,100463.28
2022-08-22T17:53:40.819Z,100461.00
2022-08-22T17:57:00.305Z,100463.31
2022-08-22T17:59:37.407Z,100466.69
2022-08-22T18:02:13.758Z,100462.13
2022-08-22T18:04:59.095Z,100464.66
2022-08-22T18:07:32.054Z,100469.94
2022-08-22T18:10:25.967Z,100470.81
2022-08-22T18:13:04.810Z,100476.13
2022-08-22T18:15:53.023Z,100472.63
2022-08-22T18:18:30.109Z,100482.69
2022-08-22T18:21:36.465Z,100492.56
2022-08-22T18:24:09.553Z,100495.72
2022-08-22T18:26:41.493Z,100495.28
2022-08-22T18:29:31.437Z,100493.19
2022-08-22T18:32:07.755Z,100498.63
2022-08-22T18:34:47.541Z,100503.88
2022-08-22T18:37:38.270Z,100505.34
2022-08-22T18:40:21.938Z,100516.19
2022-08-22T18:42:59.928Z,100512.84
2022-08-22T18:46:03.959Z,100517.88
2022-08-22T18:48:59.337Z,100524.75
2022-08-22T18:51:38.706Z,100523.72
2022-08-22T18:54:06.881Z,100528.94
2022-08-22T18:57:02.082Z,100541.66
2022-08-22T18:59:53.041Z,100539.75
2022-08-22T19:02:57.797Z,100538.72
2022-08-22T19:06:02.710Z,100542.69
2022-08-22T19:08:44.875Z,100548.72
2022-08-22T19:11:17.880Z,100551.22
2022-08-22T19:13:47.794Z,100550.63
2022-08-22T19:17:02.423Z,100561.25
2022-08-22T19:20:06.380Z,100561.66
2022-08-22T19:22:36.062Z,100558.28
2022-08-22T19:25:09.323Z,100566.81
2022-08-22T19:27:41.299Z,100565.16
2022-08-22T19:30:34.527Z,100567.25
2022-08-22T19:33:08.722Z,100562.44
2022-08-22T19:35:41.820Z,100566.38
2022-08-22T19:38:09.733Z,100578.50
2022-08-22T19:40:45.877Z,100577.84
2022-08-22T19:43:26.370Z,100582.81
2022-08-22T19:45:55.821Z,100582.81
2022-08-22T19:48:31.567Z,100596.22
2022-08-22T19:51:11.024Z,100589.94
2022-08-22T19:54:00.974Z,100599.72
2022-08-22T19:56:56.222Z,100589.06
2022-08-22T20:00:03.007Z,100598.22
2022-08-22T20:02:56.550Z,100589.84
2022-08-22T20:05:37.400Z,100599.84
2022-08-22T20:08:16.904Z,100605.66
2022-08-22T20:11:14.753Z,100608.16
2022-08-22T20:13:42.607Z,100605.84
2022-08-22T20:16:41.069Z,100610.63
2022-08-22T20:19:09.519Z,100618.31
2022-08-22T20:21:44.012Z,100621.44
2022-08-22T20:24:41.524Z,100623.94
2022-08-22T20:27:29.932Z,100619.75
2022-08-22T20:30:02.141Z,100622.03
2022-08-22T20:32:32.556Z,100623.44
2022-08-22T20:35:03.079Z,100623.00
2022-08-22T20:38:05.451Z,100630.50
2022-08-22T20:40:56.699Z,100619.00
2022-08-22T20:43:28.299Z,100627.53
2022-08-22T20:46:04.724Z,100626.22
2022-08-22T20:48:40.984Z,100621.56
2022-08-22T20:51:10.070Z,100629.44
2022-08-22T20:53:37.298Z,100623.13
2022-08-22T20:56:08.228Z,100619.19
2022-08-22T20:58:39.655Z,100620.22
2022-08-22T21:01:11.319Z,100621.19
2022-08-22T21:03:45.608Z,100624.44
2022-08-22T21:06:15.137Z,100629.13
2022-08-22T21:08:44.550Z,100624.47
2022-08-22T21:11:39.583Z,100629.38
2022-08-22T21:14:25.272Z,100628.75
2022-08-22T21:16:53.268Z,100631.19
2022-08-22T21:19:29.343Z,100637.44
2022-08-22T21:22:14.331Z,100638.91
2022-08-22T21:24:41.596Z,100637.69
2022-08-22T21:27:10.763Z,100641.94
2022-08-22T21:29:44.724Z,100648.31
2022-08-22T21:32:24.734Z,100647.13
2022-08-22T21:34:52.540Z,100643.28
2022-08-22T21:37:39.745Z,100644.31
2022-08-22T21:40:15.165Z,100649.06
2022-08-22T21:42:46.133Z,100642.81
2022-08-22T21:45:28.564Z,100639.97
2022-08-22T21:47:56.475Z,100641.06
2022-08-22T21:50:23.771Z,100642.56
2022-08-22T21:52:53.701Z,100648.41
2022-08-22T21:55:28.779Z,100656.31
2022-08-22T21:58:03.295Z,100650.19
2022-08-22T22:00:48.521Z,100644.72
2022-08-22T22:03:23.612Z,100646.72
2022-08-22T22:05:52.893Z,100643.41
2022-08-22T22:08:20.283Z,100642.78
2022-08-22T22:10:49.168Z,100646.47
2022-08-22T22:13:19.587Z,100653.94
2022-08-22T22:15:48.945Z,100653.47
2022-08-22T22:18:20.772Z,100656.78
2022-08-22T22:20:49.984Z,100660.78
2022-08-22T22:23:17.509Z,100656.28
2022-08-22T22:25:45.645Z,100655.22
2022-08-22T22:28:18.091Z,100650.25
2022-08-22T22:30:50.399Z,100663.59
2022-08-22T22:33:18.931Z,100657.81
2022-08-22T22:35:47.375Z,100662.69
2022-08-22T22:38:15.255Z,100665.41
2022-08-22T22:40:42.613Z,100666.31
2022-08-22T22:43:10.307Z,100666.63
2022-08-22T22:45:38.276Z,100665.94
2022-08-22T22:48:06.193Z,100666.31
2022-08-22T22:50:37.940Z,100671.38
2022-08-22T22:53:05.196Z,100676.66
2022-08-22T22:55:37.647Z,100676.53
2022-08-22T22:58:10.352Z,100682.13
2022-08-22T23:00:37.765Z,100679.00
2022-08-22T23:03:06.754Z,100675.81
2022-08-22T23:05:34.727Z,100674.84
2022-08-22T23:08:02.500Z,100671.25
2022-08-22T23:10:30.945Z,100674.59
2022-08-22T23:12:59.411Z,100678.56
2022-08-22T23:15:27.236Z,100679.13
2022-08-22T23:17:54.955Z,100682.34
2022-08-22T23:20:22.529Z,100686.53
2022-08-22T23:22:49.822Z,100686.44
2022-08-22T23:25:17.187Z,100684.63
2022-08-22T23:27:44.465Z,100682.41
2022-08-22T23:30:15.953Z,100687.81
2022-08-22T23:32:43.219Z,100687.91
2022-08-22T23:35:10.482Z,100687.56
2022-08-22T23:37:37.691Z,100692.63
2022-08-22T23:40:08.175Z,100690.94
2022-08-22T23:42:35.596Z,100689.72
2022-08-22T23:45:03.095Z,100684.59
2022-08-22T23:47:30.337Z,100689.78
2022-08-22T23:49:57.607Z,100690.81
2022-08-22T23:52:25.316Z,100685.06
2022-08-22T23:54:54.521Z,100698.59
2022-08-22T23:57:26.548Z,100697.47
2022-08-22T23:59:57.718Z,100697.84
